createdAt,value
2023-04-02T00:00:49.190Z,22.62
2023-04-02T00:01:49.230Z,22.64
2023-04-02T00:02:49.284Z,22.66
2023-04-02T00:03:49.257Z,22.67
2023-04-02T00:04:49.242Z,22.68
2023-04-02T00:05:49.253Z,22.68
2023-04-02T00:06:49.269Z,22.68
2023-04-02T00:07:49.287Z,22.70
2023-04-02T00:08:49.289Z,22.70
2023-04-02T00:09:49.312Z,22.70
2023-04-02T00:10:49.318Z,22.70
2023-04-02T00:11:49.337Z,22.70
2023-04-02T00:12:49.369Z,22.70
2023-04-02T00:13:49.355Z,22.70
2023-04-02T00:14:49.386Z,22.70
2023-04-02T00:15:49.385Z,22.70
2023-04-02T00:16:49.473Z,22.70
2023-04-02T00:17:49.491Z,22.70
2023-04-02T00:18:49.448Z,22.69
2023-04-02T00:19:49.442Z,22.70
2023-04-02T00:20:49.475Z,22.70
2023-04-02T00:21:49.479Z,22.69
2023-04-02T00:22:49.494Z,22.70
2023-04-02T00:23:49.519Z,22.70
2023-04-02T00:24:49.537Z,22.70
2023-04-02T00:25:49.550Z,22.70
2023-04-02T00:26:49.566Z,22.70
2023-04-02T00:27:49.611Z,22.70
2023-04-02T00:28:49.638Z,22.69
2023-04-02T00:29:49.633Z,22.70
2023-04-02T00:30:49.650Z,22.70
2023-04-02T00:31:49.699Z,22.70
2023-04-02T00:32:49.737Z,22.70
2023-04-02T00:33:49.698Z,22.70
2023-04-02T00:34:49.703Z,22.70
2023-04-02T00:35:49.725Z,22.70
2023-04-02T00:36:50.131Z,22.70
2023-04-02T00:37:50.143Z,22.70
2023-04-02T00:38:50.134Z,22.69
2023-04-02T00:39:50.131Z,22.70
2023-04-02T00:40:50.123Z,22.70
2023-04-02T00:41:50.134Z,22.70
2023-04-02T00:42:50.139Z,22.69
2023-04-02T00:43:50.124Z,22.70
2023-04-02T00:44:50.158Z,22.69
2023-04-02T00:45:50.138Z,22.70
2023-04-02T00:46:50.120Z,22.70
2023-04-02T00:47:50.148Z,22.70
2023-04-02T00:48:50.138Z,22.70
2023-04-02T00:49:50.120Z,22.70
2023-04-02T00:50:50.133Z,22.71
2023-04-02T00:51:50.138Z,22.70
2023-04-02T00:52:50.133Z,22.69
2023-04-02T00:53:50.123Z,22.70
2023-04-02T00:54:50.130Z,22.70
2023-04-02T00:55:50.122Z,22.70
2023-04-02T00:56:50.168Z,22.70
2023-04-02T00:57:50.158Z,22.70
2023-04-02T00:58:50.168Z,22.69
2023-04-02T00:59:50.195Z,22.70
2023-04-02T01:00:50.189Z,22.70
2023-04-02T01:01:50.245Z,22.70
2023-04-02T01:02:50.318Z,22.70
2023-04-02T01:03:50.187Z,22.70
2023-04-02T01:04:50.170Z,22.69
2023-04-02T01:05:50.188Z,22.69
2023-04-02T01:06:50.192Z,22.70
2023-04-02T01:07:50.200Z,22.69
2023-04-02T01:08:50.224Z,22.69
2023-04-02T01:09:50.238Z,22.69
2023-04-02T01:10:50.245Z,22.69
2023-04-02T01:11:50.283Z,22.69
2023-04-02T01:12:50.402Z,22.69
2023-04-02T01:13:50.335Z,22.69
2023-04-02T01:14:50.353Z,22.69
2023-04-02T01:15:50.412Z,22.69
2023-04-02T01:16:50.446Z,22.70
2023-04-02T01:17:50.464Z,22.70
2023-04-02T01:18:50.520Z,22.70
2023-04-02T01:19:50.520Z,22.70
2023-04-02T01:20:50.557Z,22.70
2023-04-02T01:21:50.556Z,22.70
2023-04-02T01:22:50.572Z,22.69
2023-04-02T01:23:50.595Z,22.70
2023-04-02T01:24:50.601Z,22.70
2023-04-02T01:25:50.962Z,22.70
2023-04-02T01:26:51.011Z,22.70
2023-04-02T01:27:51.010Z,22.70
2023-04-02T01:28:51.010Z,22.70
2023-04-02T01:29:51.029Z,22.70
2023-04-02T01:30:51.009Z,22.70
2023-04-02T01:31:51.030Z,22.70
2023-04-02T01:32:51.079Z,22.71
2023-04-02T01:33:51.022Z,22.70
2023-04-02T01:34:51.011Z,22.71
2023-04-02T01:35:51.044Z,22.70
2023-04-02T01:36:51.016Z,22.70
2023-04-02T01:37:51.003Z,22.71
2023-04-02T01:38:51.021Z,22.71
2023-04-02T01:39:51.015Z,22.70
2023-04-02T01:40:51.012Z,22.71
2023-04-02T01:41:51.011Z,22.70
2023-04-02T01:42:51.015Z,22.69
2023-04-02T01:43:51.021Z,22.70
2023-04-02T01:44:51.027Z,22.70
2023-04-02T01:45:51.602Z,22.70
2023-04-02T01:46:51.103Z,22.71
2023-04-02T01:47:51.032Z,22.70
2023-04-02T01:48:51.034Z,22.71
2023-04-02T01:49:51.025Z,22.70
2023-04-02T01:50:50.117Z,22.70
2023-04-02T01:51:51.053Z,22.70
2023-04-02T01:52:51.075Z,22.70
2023-04-02T01:53:51.081Z,22.71
2023-04-02T01:54:51.106Z,22.70
2023-04-02T01:55:51.116Z,22.70
2023-04-02T01:56:51.171Z,22.70
2023-04-02T01:57:51.142Z,22.70
2023-04-02T01:58:51.170Z,22.70
2023-04-02T01:59:51.185Z,22.70
2023-04-02T02:00:51.264Z,22.70
2023-04-02T02:01:51.287Z,22.70
2023-04-02T02:02:51.296Z,22.71
2023-04-02T02:03:51.287Z,22.70
2023-04-02T02:04:51.293Z,22.70
2023-04-02T02:05:51.285Z,22.70
2023-04-02T02:06:51.302Z,22.70
2023-04-02T02:07:51.323Z,22.70
2023-04-02T02:08:51.346Z,22.70
2023-04-02T02:09:51.363Z,22.70
2023-04-02T02:10:51.386Z,22.70
2023-04-02T02:11:51.406Z,22.70
2023-04-02T02:12:51.425Z,22.71
2023-04-02T02:13:51.444Z,22.71
2023-04-02T02:14:51.467Z,22.71
2023-04-02T02:15:51.499Z,22.70
2023-04-02T02:16:51.506Z,22.71
2023-04-02T02:17:51.553Z,22.71
2023-04-02T02:18:51.539Z,22.71
2023-04-02T02:19:51.557Z,22.71
2023-04-02T02:20:51.605Z,22.71
2023-04-02T02:21:52.548Z,22.71
2023-04-02T02:22:51.615Z,22.71
2023-04-02T02:23:51.631Z,22.71
2023-04-02T02:24:51.650Z,22.70
2023-04-02T02:25:51.671Z,22.71
2023-04-02T02:26:51.681Z,22.70
2023-04-02T02:27:51.697Z,22.71
2023-04-02T02:28:51.734Z,22.71
2023-04-02T02:29:51.805Z,22.71
2023-04-02T02:30:52.555Z,22.70
2023-04-02T02:31:51.902Z,22.71
2023-04-02T02:32:52.092Z,22.71
2023-04-02T02:33:51.875Z,22.70
2023-04-02T02:34:51.897Z,22.71
2023-04-02T02:35:51.940Z,22.70
2023-04-02T02:36:52.000Z,22.70
2023-04-02T02:37:51.953Z,22.70
2023-04-02T02:38:54.272Z,22.70
2023-04-02T02:39:51.979Z,22.70
2023-04-02T02:40:51.989Z,22.71
2023-04-02T02:41:52.003Z,22.71
2023-04-02T02:42:52.020Z,22.70
2023-04-02T02:43:52.563Z,22.70
2023-04-02T02:44:52.048Z,22.71
2023-04-02T02:45:52.095Z,22.71
2023-04-02T02:46:52.064Z,22.71
2023-04-02T02:47:52.097Z,22.70
2023-04-02T02:48:52.092Z,22.71
2023-04-02T02:49:52.131Z,22.71
2023-04-02T02:50:52.112Z,22.70
2023-04-02T02:51:52.114Z,22.71
2023-04-02T02:52:52.148Z,22.71
2023-04-02T02:53:52.138Z,22.70
2023-04-02T02:54:52.140Z,22.71
2023-04-02T02:55:52.156Z,22.71
2023-04-02T02:56:52.232Z,22.71
2023-04-02T02:57:52.173Z,22.70
2023-04-02T02:58:52.188Z,22.70
2023-04-02T02:59:52.209Z,22.71
2023-04-02T03:00:52.195Z,22.71
2023-04-02T03:01:52.197Z,22.70
2023-04-02T03:02:52.307Z,22.70
2023-04-02T03:03:52.396Z,22.71
2023-04-02T03:04:52.225Z,22.70
2023-04-02T03:05:52.242Z,22.71
2023-04-02T03:06:52.245Z,22.71
2023-04-02T03:07:52.254Z,22.70
2023-04-02T03:08:52.296Z,22.70
2023-04-02T03:09:52.292Z,22.70
2023-04-02T03:10:52.299Z,22.71
2023-04-02T03:11:52.313Z,22.70
2023-04-02T03:12:52.317Z,22.71
2023-04-02T03:13:52.335Z,22.71
2023-04-02T03:14:52.343Z,22.71
2023-04-02T03:15:52.402Z,22.71
2023-04-02T03:16:52.371Z,22.71
2023-04-02T03:17:52.469Z,22.71
2023-04-02T03:18:52.396Z,22.71
2023-04-02T03:19:52.413Z,22.71
2023-04-02T03:20:52.429Z,22.71
2023-04-02T03:21:52.436Z,22.71
2023-04-02T03:22:52.441Z,22.71
2023-04-02T03:23:52.462Z,22.71
2023-04-02T03:24:52.519Z,22.71
2023-04-02T03:25:52.504Z,22.70
2023-04-02T03:26:52.506Z,22.71
2023-04-02T03:27:52.520Z,22.71
2023-04-02T03:28:52.526Z,22.71
2023-04-02T03:29:52.538Z,22.71
2023-04-02T03:30:52.599Z,22.71
2023-04-02T03:31:53.071Z,22.71
2023-04-02T03:32:52.579Z,22.71
2023-04-02T03:33:53.576Z,22.71
2023-04-02T03:34:52.581Z,22.71
2023-04-02T03:35:52.605Z,22.71
2023-04-02T03:36:52.603Z,22.71
2023-04-02T03:37:52.619Z,22.71
2023-04-02T03:38:52.627Z,22.71
2023-04-02T03:39:53.589Z,22.71
2023-04-02T03:40:52.689Z,22.71
2023-04-02T03:41:53.578Z,22.71
2023-04-02T03:42:52.685Z,22.70
2023-04-02T03:43:52.712Z,22.71
2023-04-02T03:44:51.704Z,22.71
2023-04-02T03:45:52.713Z,22.70
2023-04-02T03:46:52.802Z,22.71
2023-04-02T03:47:52.774Z,22.70
2023-04-02T03:48:52.756Z,22.70
2023-04-02T03:49:52.766Z,22.71
2023-04-02T03:50:52.772Z,22.71
2023-04-02T03:51:52.786Z,22.71
2023-04-02T03:52:52.798Z,22.71
2023-04-02T03:53:52.806Z,22.71
2023-04-02T03:54:53.585Z,22.71
2023-04-02T03:55:52.952Z,22.71
2023-04-02T03:56:53.016Z,22.71
2023-04-02T03:57:52.981Z,22.71
2023-04-02T03:58:53.005Z,22.71
2023-04-02T03:59:53.043Z,22.71
2023-04-02T04:00:53.064Z,22.71
2023-04-02T04:01:53.109Z,22.70
2023-04-02T04:02:53.153Z,22.71
2023-04-02T04:03:53.131Z,22.71
2023-04-02T04:04:53.125Z,22.71
2023-04-02T04:05:53.163Z,22.71
2023-04-02T04:06:53.181Z,22.71
2023-04-02T04:07:53.200Z,22.70
2023-04-02T04:08:53.238Z,22.70
2023-04-02T04:09:53.259Z,22.71
2023-04-02T04:10:53.341Z,22.70
2023-04-02T04:11:53.338Z,22.70
2023-04-02T04:12:53.385Z,22.70
2023-04-02T04:13:53.384Z,22.71
2023-04-02T04:14:53.406Z,22.71
2023-04-02T04:15:54.085Z,22.70
2023-04-02T04:16:53.524Z,22.70
2023-04-02T04:17:53.497Z,22.70
2023-04-02T04:18:53.478Z,22.70
2023-04-02T04:19:53.502Z,22.71
2023-04-02T04:20:53.526Z,22.71
2023-04-02T04:21:53.544Z,22.70
2023-04-02T04:22:53.556Z,22.71
2023-04-02T04:23:53.609Z,22.70
2023-04-02T04:24:53.669Z,22.70
2023-04-02T04:25:54.589Z,22.70
2023-04-02T04:26:53.621Z,22.70
2023-04-02T04:27:54.591Z,22.70
2023-04-02T04:28:53.711Z,22.70
2023-04-02T04:29:53.702Z,22.70
2023-04-02T04:30:53.721Z,22.70
2023-04-02T04:31:53.761Z,22.70
2023-04-02T04:32:53.807Z,22.71
2023-04-02T04:33:53.783Z,22.70
2023-04-02T04:34:53.876Z,22.70
2023-04-02T04:35:53.841Z,22.70
2023-04-02T04:36:53.926Z,22.70
2023-04-02T04:37:54.603Z,22.70
2023-04-02T04:38:53.874Z,22.70
2023-04-02T04:39:53.886Z,22.70
2023-04-02T04:40:53.935Z,22.70
2023-04-02T04:41:53.919Z,22.69
2023-04-02T04:42:53.943Z,22.69
2023-04-02T04:43:53.966Z,22.69
2023-04-02T04:44:54.004Z,22.70
2023-04-02T04:45:54.020Z,22.70
2023-04-02T04:46:54.605Z,22.69
2023-04-02T04:47:54.067Z,22.69
2023-04-02T04:48:54.068Z,22.69
2023-04-02T04:49:54.089Z,22.69
2023-04-02T04:50:54.103Z,22.69
2023-04-02T04:51:54.616Z,22.69
2023-04-02T04:52:54.148Z,22.69
2023-04-02T04:53:54.163Z,22.68
2023-04-02T04:54:54.191Z,22.68
2023-04-02T04:55:54.212Z,22.67
2023-04-02T04:56:54.248Z,22.67
2023-04-02T04:57:54.252Z,22.67
2023-04-02T04:58:54.285Z,22.66
2023-04-02T04:59:54.301Z,22.66
2023-04-02T05:00:54.338Z,22.66
2023-04-02T05:01:54.341Z,22.65
2023-04-02T05:02:54.397Z,22.65
2023-04-02T05:03:54.372Z,22.64
2023-04-02T05:04:54.515Z,22.65
2023-04-02T05:05:54.437Z,22.65
2023-04-02T05:06:54.452Z,22.64
2023-04-02T05:07:54.481Z,22.65
2023-04-02T05:08:54.498Z,22.63
2023-04-02T05:09:54.531Z,22.65
2023-04-02T05:11:09.106Z,22.64
2023-04-02T05:11:54.554Z,22.61
2023-04-02T05:12:54.567Z,22.63
2023-04-02T05:13:54.579Z,22.63
2023-04-02T05:14:54.607Z,22.63
2023-04-02T05:15:54.672Z,22.63
2023-04-02T05:16:54.662Z,22.62
2023-04-02T05:17:54.645Z,22.62
2023-04-02T05:18:55.625Z,22.62
2023-04-02T05:19:54.675Z,22.62
2023-04-02T05:20:54.693Z,22.62
2023-04-02T05:21:54.708Z,22.61
2023-04-02T05:22:54.715Z,22.62
2023-04-02T05:23:54.762Z,22.62
2023-04-02T05:24:54.965Z,22.61
2023-04-02T05:25:54.764Z,22.61
2023-04-02T05:26:54.785Z,22.61
2023-04-02T05:27:54.796Z,22.61
2023-04-02T05:28:54.887Z,22.60
2023-04-02T05:29:54.827Z,22.60
2023-04-02T05:30:54.819Z,22.60
2023-04-02T05:31:54.833Z,22.60
2023-04-02T05:32:54.915Z,22.60
2023-04-02T05:33:54.873Z,22.59
2023-04-02T05:34:54.876Z,22.60
2023-04-02T05:35:54.928Z,22.59
2023-04-02T05:36:54.963Z,22.59
2023-04-02T05:37:54.946Z,22.60
2023-04-02T05:38:54.936Z,22.59
2023-04-02T05:39:54.960Z,22.59
2023-04-02T05:40:54.970Z,22.59
2023-04-02T05:41:54.977Z,22.59
2023-04-02T05:42:54.991Z,22.59
2023-04-02T05:43:55.015Z,22.59
2023-04-02T05:44:55.020Z,22.59
2023-04-02T05:45:55.032Z,22.59
2023-04-02T05:46:55.112Z,22.59
2023-04-02T05:47:55.081Z,22.58
2023-04-02T05:48:55.102Z,22.58
2023-04-02T05:49:55.090Z,22.58
2023-04-02T05:50:55.102Z,22.58
2023-04-02T05:51:57.433Z,22.58
2023-04-02T05:52:55.142Z,22.58
2023-04-02T05:53:55.195Z,22.58
2023-04-02T05:54:55.193Z,22.58
2023-04-02T05:55:55.188Z,22.58
2023-04-02T05:56:55.231Z,22.57
2023-04-02T05:58:13.537Z,22.58
2023-04-02T05:58:55.364Z,22.57
2023-04-02T05:59:55.266Z,22.56
2023-04-02T06:00:55.289Z,22.56
2023-04-02T06:01:55.320Z,22.56
2023-04-02T06:02:55.379Z,22.56
2023-04-02T06:03:55.408Z,22.57
2023-04-02T06:04:55.368Z,22.56
2023-04-02T06:05:55.372Z,22.56
2023-04-02T06:06:55.375Z,22.56
2023-04-02T06:07:55.411Z,22.56
2023-04-02T06:08:55.403Z,22.56
2023-04-02T06:09:55.442Z,22.56
2023-04-02T06:10:55.436Z,22.54
2023-04-02T06:11:55.446Z,22.55
2023-04-02T06:12:55.474Z,22.56
2023-04-02T06:13:55.487Z,22.55
2023-04-02T06:14:55.496Z,22.55
2023-04-02T06:15:55.513Z,22.55
2023-04-02T06:16:55.658Z,22.55
2023-04-02T06:17:55.628Z,22.55
2023-04-02T06:18:55.584Z,22.54
2023-04-02T06:19:55.585Z,22.53
2023-04-02T06:20:55.631Z,22.52
2023-04-02T06:21:56.131Z,22.52
2023-04-02T06:22:56.139Z,22.53
2023-04-02T06:23:55.676Z,22.53
2023-04-02T06:24:55.699Z,22.52
2023-04-02T06:25:55.720Z,22.53
2023-04-02T06:26:56.115Z,22.54
2023-04-02T06:27:56.121Z,22.53
2023-04-02T06:28:56.134Z,22.53
2023-04-02T06:29:56.122Z,22.54
2023-04-02T06:30:56.133Z,22.53
2023-04-02T06:31:56.167Z,22.53
2023-04-02T06:32:56.190Z,22.53
2023-04-02T06:33:56.130Z,22.53
2023-04-02T06:34:56.117Z,22.54
2023-04-02T06:35:56.148Z,22.53
2023-04-02T06:36:56.212Z,22.53
2023-04-02T06:37:56.121Z,22.53
2023-04-02T06:38:56.122Z,22.54
2023-04-02T06:39:56.122Z,22.53
2023-04-02T06:40:58.232Z,22.53
2023-04-02T06:41:56.138Z,22.53
2023-04-02T06:42:56.121Z,22.52
2023-04-02T06:43:56.124Z,22.52
2023-04-02T06:44:56.121Z,22.53
2023-04-02T06:45:56.147Z,22.53
2023-04-02T06:46:56.120Z,22.53
2023-04-02T06:47:56.165Z,22.52
2023-04-02T06:48:56.128Z,22.53
2023-04-02T06:49:56.119Z,22.52
2023-04-02T06:50:56.128Z,22.53
2023-04-02T06:51:56.134Z,22.53
2023-04-02T06:52:56.174Z,22.53
2023-04-02T06:53:56.156Z,22.53
2023-04-02T06:54:56.421Z,22.53
2023-04-02T06:55:56.192Z,22.53
2023-04-02T06:56:56.282Z,22.53
2023-04-02T06:57:56.228Z,22.52
2023-04-02T06:58:56.242Z,22.53
2023-04-02T06:59:56.261Z,22.52
2023-04-02T07:00:56.296Z,22.53
2023-04-02T07:01:56.347Z,22.53
2023-04-02T07:02:56.418Z,22.52
2023-04-02T07:03:56.339Z,22.53
2023-04-02T07:04:56.544Z,22.52
2023-04-02T07:05:56.374Z,22.53
2023-04-02T07:06:56.380Z,22.53
2023-04-02T07:07:56.397Z,22.53
2023-04-02T07:08:56.679Z,22.54
2023-04-02T07:09:56.430Z,22.53
2023-04-02T07:10:56.442Z,22.53
2023-04-02T07:11:56.459Z,22.53
2023-04-02T07:12:56.470Z,22.53
2023-04-02T07:13:56.485Z,22.53
2023-04-02T07:14:56.499Z,22.53
2023-04-02T07:15:56.546Z,22.53
2023-04-02T07:16:56.537Z,22.52
2023-04-02T07:17:56.570Z,22.53
2023-04-02T07:18:56.561Z,22.53
2023-04-02T07:19:56.569Z,22.53
2023-04-02T07:20:56.596Z,22.53
2023-04-02T07:21:56.606Z,22.53
2023-04-02T07:22:56.722Z,22.53
2023-04-02T07:23:56.633Z,22.52
2023-04-02T07:24:56.679Z,22.52
2023-04-02T07:25:56.659Z,22.52
2023-04-02T07:26:56.688Z,22.52
2023-04-02T07:27:57.195Z,22.52
2023-04-02T07:28:56.704Z,22.53
2023-04-02T07:29:56.722Z,22.53
2023-04-02T07:30:56.734Z,22.53
2023-04-02T07:31:56.774Z,22.53
2023-04-02T07:32:56.848Z,22.53
2023-04-02T07:33:57.214Z,22.54
2023-04-02T07:34:57.131Z,22.53
2023-04-02T07:35:57.187Z,22.53
2023-04-02T07:36:56.833Z,22.53
2023-04-02T07:37:57.172Z,22.54
2023-04-02T07:38:57.197Z,22.53
2023-04-02T07:39:57.656Z,22.53
2023-04-02T07:40:57.202Z,22.53
2023-04-02T07:41:57.202Z,22.53
2023-04-02T07:42:57.174Z,22.52
2023-04-02T07:43:57.181Z,22.53
2023-04-02T07:44:57.177Z,22.53
2023-04-02T07:45:57.181Z,22.54
2023-04-02T07:46:57.718Z,22.53
2023-04-02T07:47:57.219Z,22.54
2023-04-02T07:48:57.181Z,22.53
2023-04-02T07:49:57.183Z,22.53
2023-04-02T07:50:57.177Z,22.53
2023-04-02T07:51:57.180Z,22.54
2023-04-02T07:52:57.175Z,22.54
2023-04-02T07:53:57.201Z,22.54
2023-04-02T07:54:57.177Z,22.53
2023-04-02T07:55:57.176Z,22.53
2023-04-02T07:56:57.217Z,22.53
2023-04-02T07:57:57.188Z,22.54
2023-04-02T07:58:57.173Z,22.54
2023-04-02T07:59:57.195Z,22.54
2023-04-02T08:01:00.180Z,22.54
2023-04-02T08:01:57.286Z,22.53
2023-04-02T08:02:58.271Z,22.53
2023-04-02T08:03:57.315Z,22.54
2023-04-02T08:04:57.273Z,22.53
2023-04-02T08:05:57.308Z,22.54
2023-04-02T08:06:57.309Z,22.54
2023-04-02T08:07:57.332Z,22.53
2023-04-02T08:08:57.342Z,22.53
2023-04-02T08:09:57.381Z,22.54
2023-04-02T08:10:57.355Z,22.54
2023-04-02T08:11:57.372Z,22.54
2023-04-02T08:12:57.403Z,22.53
2023-04-02T08:13:57.393Z,22.54
2023-04-02T08:14:57.400Z,22.54
2023-04-02T08:15:57.416Z,22.54
2023-04-02T08:16:57.529Z,22.55
2023-04-02T08:17:57.510Z,22.54
2023-04-02T08:18:57.507Z,22.54
2023-04-02T08:19:57.528Z,22.55
2023-04-02T08:20:57.561Z,22.55
2023-04-02T08:21:57.585Z,22.54
2023-04-02T08:22:57.622Z,22.55
2023-04-02T08:23:57.661Z,22.54
2023-04-02T08:24:57.694Z,22.54
2023-04-02T08:25:57.722Z,22.55
2023-04-02T08:26:57.761Z,22.55
2023-04-02T08:27:57.795Z,22.55
2023-04-02T08:28:57.890Z,22.55
2023-04-02T08:29:57.870Z,22.55
2023-04-02T08:31:00.699Z,22.55
2023-04-02T08:31:57.909Z,22.55
2023-04-02T08:32:57.968Z,22.55
2023-04-02T08:33:57.944Z,22.55
2023-04-02T08:34:57.957Z,22.55
2023-04-02T08:35:58.002Z,22.55
2023-04-02T08:36:57.994Z,22.55
2023-04-02T08:37:58.007Z,22.55
2023-04-02T08:38:58.016Z,22.55
2023-04-02T08:39:58.038Z,22.55
2023-04-02T08:40:58.044Z,22.56
2023-04-02T08:41:58.079Z,22.55
2023-04-02T08:42:58.090Z,22.55
2023-04-02T08:43:58.125Z,22.55
2023-04-02T08:44:58.156Z,22.55
2023-04-02T08:45:58.182Z,22.55
2023-04-02T08:46:58.158Z,22.56
2023-04-02T08:47:58.705Z,22.55
2023-04-02T08:48:58.193Z,22.55
2023-04-02T08:49:58.232Z,22.55
2023-04-02T08:50:58.224Z,22.55
2023-04-02T08:51:58.245Z,22.55
2023-04-02T08:52:58.265Z,22.56
2023-04-02T08:53:58.272Z,22.55
2023-04-02T08:54:59.185Z,22.55
2023-04-02T08:55:58.298Z,22.56
2023-04-02T08:57:01.247Z,22.55
2023-04-02T08:57:58.340Z,22.55
2023-04-02T08:59:01.187Z,22.56
2023-04-02T08:59:58.361Z,22.55
2023-04-02T09:00:58.397Z,22.54
2023-04-02T09:01:58.462Z,22.56
2023-04-02T09:03:13.191Z,22.56
2023-04-02T09:03:58.422Z,22.53
2023-04-02T09:04:58.496Z,22.54
2023-04-02T09:05:58.435Z,22.54
2023-04-02T09:06:58.453Z,22.55
2023-04-02T09:07:58.470Z,22.56
2023-04-02T09:08:58.490Z,22.56
2023-04-02T09:09:58.493Z,22.55
2023-04-02T09:10:58.870Z,22.55
2023-04-02T09:11:58.524Z,22.56
2023-04-02T09:12:58.541Z,22.56
2023-04-02T09:13:58.562Z,22.56
2023-04-02T09:14:58.697Z,22.56
2023-04-02T09:15:58.625Z,22.56
2023-04-02T09:16:58.628Z,22.56
2023-04-02T09:17:59.622Z,22.56
2023-04-02T09:18:58.621Z,22.56
2023-04-02T09:19:58.637Z,22.56
2023-04-02T09:20:58.652Z,22.56
2023-04-02T09:21:58.682Z,22.55
2023-04-02T09:22:58.683Z,22.56
2023-04-02T09:23:58.716Z,22.56
2023-04-02T09:24:58.718Z,22.56
2023-04-02T09:26:04.212Z,22.56
2023-04-02T09:26:58.752Z,22.56
2023-04-02T09:27:58.777Z,22.56
2023-04-02T09:28:58.785Z,22.55
2023-04-02T09:29:58.800Z,22.55
2023-04-02T09:30:58.815Z,22.56
2023-04-02T09:31:58.924Z,22.56
2023-04-02T09:33:01.835Z,22.56
2023-04-02T09:33:59.214Z,22.56
2023-04-02T09:34:58.906Z,22.55
2023-04-02T09:35:58.953Z,22.55
2023-04-02T09:36:58.934Z,22.55
2023-04-02T09:37:58.954Z,22.56
2023-04-02T09:38:58.978Z,22.56
2023-04-02T09:39:58.996Z,22.56
2023-04-02T09:40:59.016Z,22.56
2023-04-02T09:42:05.778Z,22.56
2023-04-02T09:42:59.048Z,22.55
2023-04-02T09:43:59.214Z,22.56
2023-04-02T09:44:59.068Z,22.55
2023-04-02T09:45:59.081Z,22.56
2023-04-02T09:46:59.235Z,22.56
2023-04-02T09:47:59.209Z,22.56
2023-04-02T09:48:59.241Z,22.56
2023-04-02T09:49:59.130Z,22.56
2023-04-02T09:50:59.150Z,22.57
2023-04-02T09:51:59.168Z,22.57
2023-04-02T09:52:59.169Z,22.57
2023-04-02T09:53:59.190Z,22.57
2023-04-02T09:54:59.206Z,22.58
2023-04-02T09:55:59.220Z,22.57
2023-04-02T09:56:59.251Z,22.58
2023-04-02T09:58:01.936Z,22.58
2023-04-02T09:58:59.250Z,22.57
2023-04-02T09:59:59.269Z,22.57
2023-04-02T10:00:59.298Z,22.57
2023-04-02T10:01:59.300Z,22.58
2023-04-02T10:02:59.389Z,22.58
2023-04-02T10:03:59.532Z,22.59
2023-04-02T10:04:59.384Z,22.58
2023-04-02T10:05:59.370Z,22.58
2023-04-02T10:06:59.383Z,22.58
2023-04-02T10:07:59.395Z,22.58
2023-04-02T10:08:59.410Z,22.59
2023-04-02T10:09:59.425Z,22.59
2023-04-02T10:10:59.441Z,22.60
2023-04-02T10:11:59.465Z,22.60
2023-04-02T10:12:59.477Z,22.60
2023-04-02T10:13:59.493Z,22.60
2023-04-02T10:15:02.230Z,22.60
2023-04-02T10:15:59.727Z,22.61
2023-04-02T10:17:00.323Z,22.61
2023-04-02T10:17:59.598Z,22.62
2023-04-02T10:18:59.582Z,22.62
2023-04-02T10:19:58.589Z,22.62
2023-04-02T10:20:59.620Z,22.61
2023-04-02T10:21:59.615Z,22.61
2023-04-02T10:22:59.631Z,22.61
2023-04-02T10:23:59.667Z,22.62
2023-04-02T10:24:59.674Z,22.62
2023-04-02T10:25:59.673Z,22.62
2023-04-02T10:26:59.704Z,22.62
2023-04-02T10:27:59.695Z,22.63
2023-04-02T10:28:59.710Z,22.63
2023-04-02T10:30:00.721Z,22.64
2023-04-02T10:30:59.774Z,22.64
2023-04-02T10:31:59.760Z,22.64
2023-04-02T10:32:59.797Z,22.65
2023-04-02T10:33:59.780Z,22.65
2023-04-02T10:34:59.785Z,22.65
2023-04-02T10:35:59.876Z,22.65
2023-04-02T10:36:59.850Z,22.65
2023-04-02T10:37:59.869Z,22.64
2023-04-02T10:38:59.855Z,22.65
2023-04-02T10:39:59.865Z,22.65
2023-04-02T10:40:59.865Z,22.64
2023-04-02T10:41:59.879Z,22.64
2023-04-02T10:42:59.893Z,22.64
2023-04-02T10:44:09.191Z,22.64
2023-04-02T10:44:59.909Z,22.63
2023-04-02T10:45:59.939Z,22.63
2023-04-02T10:47:00.233Z,22.63
2023-04-02T10:47:59.983Z,22.63
2023-04-02T10:48:59.964Z,22.63
2023-04-02T10:49:59.974Z,22.63
2023-04-02T10:50:59.996Z,22.64
2023-04-02T10:52:00.008Z,22.64
2023-04-02T10:53:00.056Z,22.64
2023-04-02T10:54:00.038Z,22.64
2023-04-02T10:55:00.105Z,22.64
2023-04-02T10:56:00.068Z,22.64
2023-04-02T10:57:00.135Z,22.64
2023-04-02T10:58:00.114Z,22.65
2023-04-02T10:59:00.107Z,22.66
2023-04-02T11:00:00.161Z,22.66
2023-04-02T11:01:00.211Z,22.66
2023-04-02T11:02:00.259Z,22.67
2023-04-02T11:03:00.241Z,22.67
2023-04-02T11:04:00.248Z,22.67
2023-04-02T11:05:01.790Z,22.67
2023-04-02T11:06:00.186Z,22.68
2023-04-02T11:07:11.078Z,22.67
2023-04-02T11:08:00.243Z,22.67
2023-04-02T11:09:00.248Z,22.66
2023-04-02T11:10:00.263Z,22.66
2023-04-02T11:11:00.251Z,22.66
2023-04-02T11:12:00.251Z,22.67
2023-04-02T11:13:00.257Z,22.67
2023-04-02T11:14:00.291Z,22.66
2023-04-02T11:15:01.241Z,22.67
2023-04-02T11:16:00.768Z,22.68
2023-04-02T11:17:00.300Z,22.67
2023-04-02T11:18:00.383Z,22.67
2023-04-02T11:19:00.326Z,22.67
2023-04-02T11:20:00.359Z,22.67
2023-04-02T11:21:00.349Z,22.66
2023-04-02T11:22:01.959Z,22.67
2023-04-02T11:23:00.380Z,22.65
2023-04-02T11:24:00.399Z,22.66
2023-04-02T11:25:00.447Z,22.66
2023-04-02T11:26:00.420Z,22.66
2023-04-02T11:27:00.430Z,22.66
2023-04-02T11:28:00.459Z,22.66
2023-04-02T11:29:00.453Z,22.66
2023-04-02T11:30:00.476Z,22.67
2023-04-02T11:31:00.508Z,22.66
2023-04-02T11:32:00.495Z,22.66
2023-04-02T11:33:00.536Z,22.66
2023-04-02T11:34:00.517Z,22.66
2023-04-02T11:35:07.095Z,22.66
2023-04-02T11:36:00.604Z,22.65
2023-04-02T11:37:00.559Z,22.65
2023-04-02T11:38:00.754Z,22.65
2023-04-02T11:39:14.500Z,22.65
2023-04-02T11:40:00.604Z,22.63
2023-04-02T11:41:00.639Z,22.64
2023-04-02T11:42:00.621Z,22.64
2023-04-02T11:43:00.639Z,22.64
2023-04-02T11:44:00.669Z,22.65
2023-04-02T11:45:00.675Z,22.65
2023-04-02T11:46:00.689Z,22.65
2023-04-02T11:47:00.747Z,22.66
2023-04-02T11:48:00.900Z,22.66
2023-04-02T11:49:00.722Z,22.65
2023-04-02T11:50:00.779Z,22.66
2023-04-02T11:51:01.582Z,22.66
2023-04-02T11:52:11.339Z,22.66
2023-04-02T11:53:00.777Z,22.66
2023-04-02T11:54:00.796Z,22.65
2023-04-02T11:55:00.795Z,22.65
2023-04-02T11:56:00.800Z,22.65
2023-04-02T11:57:00.894Z,22.64
2023-04-02T11:58:01.003Z,22.65
2023-04-02T11:59:00.840Z,22.64
2023-04-02T12:00:00.866Z,22.64
2023-04-02T12:01:00.867Z,22.65
2023-04-02T12:02:00.899Z,22.66
2023-04-02T12:03:00.932Z,22.66
2023-04-02T12:04:00.911Z,22.66
2023-04-02T12:05:00.952Z,22.66
2023-04-02T12:06:02.842Z,22.65
2023-04-02T12:07:03.755Z,22.65
2023-04-02T12:08:01.788Z,22.65
2023-04-02T12:09:00.963Z,22.65
2023-04-02T12:10:00.990Z,22.64
2023-04-02T12:11:00.987Z,22.65
2023-04-02T12:12:01.006Z,22.65
2023-04-02T12:13:01.792Z,22.65
2023-04-02T12:14:01.011Z,22.65
2023-04-02T12:15:01.031Z,22.65
2023-04-02T12:16:01.764Z,22.65
2023-04-02T12:17:01.061Z,22.66
2023-04-02T12:18:01.078Z,22.65
2023-04-02T12:19:01.057Z,22.65
2023-04-02T12:20:01.892Z,22.66
2023-04-02T12:21:01.284Z,22.66
2023-04-02T12:22:01.336Z,22.66
2023-04-02T12:23:01.326Z,22.67
2023-04-02T12:24:01.355Z,22.66
2023-04-02T12:25:01.383Z,22.66
2023-04-02T12:26:01.387Z,22.67
2023-04-02T12:27:01.399Z,22.67
2023-04-02T12:28:01.430Z,22.66
2023-04-02T12:29:01.470Z,22.67
2023-04-02T12:30:01.508Z,22.67
2023-04-02T12:31:01.530Z,22.68
2023-04-02T12:32:01.524Z,22.68
2023-04-02T12:33:01.598Z,22.68
2023-04-02T12:34:01.561Z,22.68
2023-04-02T12:35:01.769Z,22.68
2023-04-02T12:36:01.643Z,22.69
2023-04-02T12:37:01.626Z,22.68
2023-04-02T12:38:01.655Z,22.70
2023-04-02T12:39:01.670Z,22.69
2023-04-02T12:40:01.819Z,22.69
2023-04-02T12:41:01.715Z,22.69
2023-04-02T12:42:01.740Z,22.69
2023-04-02T12:43:01.766Z,22.69
2023-04-02T12:44:02.778Z,22.69
2023-04-02T12:45:01.829Z,22.68
2023-04-02T12:46:01.874Z,22.68
2023-04-02T12:47:01.857Z,22.68
2023-04-02T12:48:01.891Z,22.68
2023-04-02T12:49:01.891Z,22.68
2023-04-02T12:50:02.308Z,22.67
2023-04-02T12:51:02.320Z,22.68
2023-04-02T12:52:02.319Z,22.68
2023-04-02T12:53:04.768Z,22.69